ABW5927 ULLI-URMM
Flight info
| Callsign | ABW5927 |
|---|---|
| Flight time | 3h 20m |
| Altitude | 33000 |
| Route | SUGIN T873 IRDEK L4 UPERI T833 TOGMO M56 ABAGI W21 WGD A927 SL DCT SUBED DCT LIDUS/K0882F340 G242 ZG/K0883F330 DCT ITAKA/K0882F340 R227 URILU |
| Aircraft | B77L/H-SDE1E2E3FGHIJ2J3J4J5M1RWXY/LB1D1 |
Departure
| Time | 2026-05-08 17:12 |
|---|---|
| Airport | Pulkovo Airport (ULLI) |
Arrival
| Time | 2026-05-08 20:33 |
|---|---|
| Airport | Mineralnye Vody Airport (URMM) |
| Time | Latitude | Longitude | Altitude | Speed | Heading |
|---|---|---|---|---|---|
| 2026-05-08 16:09 | 59.79939 | 30.29197 | 82 ft | 0 kts | 196° |
| 2026-05-08 16:55 | 59.79957 | 30.29208 | 89 ft | 4 kts | 201° |
| 2026-05-08 16:55 | 59.79981 | 30.29231 | 89 ft | 4 kts | 211° |
| 2026-05-08 16:55 | 59.80003 | 30.29261 | 89 ft | 4 kts | 224° |
| 2026-05-08 16:55 | 59.80020 | 30.29302 | 89 ft | 4 kts | 246° |
| 2026-05-08 16:56 | 59.80024 | 30.29347 | 89 ft | 2 kts | 285° |
| 2026-05-08 16:56 | 59.80024 | 30.29350 | 89 ft | 2 kts | 286° |
| 2026-05-08 17:02 | 59.80024 | 30.29346 | 84 ft | 2 kts | 286° |
| 2026-05-08 17:02 | 59.80035 | 30.29274 | 88 ft | 7 kts | 286° |
| 2026-05-08 17:02 | 59.80051 | 30.29163 | 87 ft | 12 kts | 286° |
| 2026-05-08 17:02 | 59.80075 | 30.29007 | 88 ft | 12 kts | 286° |
| 2026-05-08 17:03 | 59.80098 | 30.28851 | 88 ft | 12 kts | 286° |
| 2026-05-08 17:03 | 59.80121 | 30.28695 | 87 ft | 12 kts | 286° |
| 2026-05-08 17:03 | 59.80145 | 30.28539 | 88 ft | 12 kts | 286° |
| 2026-05-08 17:03 | 59.80168 | 30.28383 | 87 ft | 12 kts | 286° |
| 2026-05-08 17:04 | 59.80191 | 30.28227 | 90 ft | 12 kts | 286° |
| 2026-05-08 17:04 | 59.80215 | 30.28071 | 88 ft | 12 kts | 286° |
| 2026-05-08 17:04 | 59.80238 | 30.27915 | 90 ft | 12 kts | 286° |
| 2026-05-08 17:04 | 59.80261 | 30.27758 | 91 ft | 12 kts | 286° |
| 2026-05-08 17:05 | 59.80284 | 30.27602 | 88 ft | 12 kts | 286° |
| 2026-05-08 17:05 | 59.80308 | 30.27447 | 91 ft | 12 kts | 286° |
| 2026-05-08 17:05 | 59.80331 | 30.27291 | 91 ft | 12 kts | 287° |
| 2026-05-08 17:05 | 59.80355 | 30.27135 | 87 ft | 12 kts | 287° |
| 2026-05-08 17:06 | 59.80378 | 30.26980 | 91 ft | 12 kts | 285° |
| 2026-05-08 17:06 | 59.80401 | 30.26824 | 90 ft | 12 kts | 287° |
| 2026-05-08 17:06 | 59.80425 | 30.26668 | 88 ft | 12 kts | 287° |
| 2026-05-08 17:06 | 59.80448 | 30.26512 | 91 ft | 12 kts | 287° |
| 2026-05-08 17:07 | 59.80472 | 30.26356 | 88 ft | 12 kts | 287° |
| 2026-05-08 17:07 | 59.80496 | 30.26199 | 88 ft | 12 kts | 286° |
| 2026-05-08 17:07 | 59.80519 | 30.26043 | 89 ft | 12 kts | 286° |
| 2026-05-08 17:07 | 59.80542 | 30.25886 | 87 ft | 12 kts | 286° |
| 2026-05-08 17:08 | 59.80566 | 30.25729 | 85 ft | 12 kts | 286° |
| 2026-05-08 17:08 | 59.80589 | 30.25573 | 85 ft | 12 kts | 287° |
| 2026-05-08 17:08 | 59.80612 | 30.25419 | 86 ft | 12 kts | 287° |
| 2026-05-08 17:08 | 59.80636 | 30.25262 | 84 ft | 12 kts | 287° |
| 2026-05-08 17:09 | 59.80659 | 30.25106 | 70 ft | 12 kts | 287° |
| 2026-05-08 17:09 | 59.80683 | 30.24949 | 71 ft | 12 kts | 287° |
| 2026-05-08 17:09 | 59.80706 | 30.24793 | 69 ft | 12 kts | 287° |
| 2026-05-08 17:09 | 59.80727 | 30.24669 | 70 ft | 9 kts | 296° |
| 2026-05-08 17:10 | 59.80777 | 30.24607 | 70 ft | 9 kts | 348° |
| 2026-05-08 17:10 | 59.80831 | 30.24585 | 70 ft | 8 kts | 348° |
| 2026-05-08 17:10 | 59.80883 | 30.24564 | 66 ft | 8 kts | 351° |
| 2026-05-08 17:10 | 59.80934 | 30.24562 | 66 ft | 6 kts | 11° |
| 2026-05-08 17:11 | 59.80959 | 30.24626 | 66 ft | 7 kts | 87° |
| 2026-05-08 17:11 | 59.80952 | 30.24690 | 69 ft | 0 kts | 105° |
| 2026-05-08 17:11 | 59.80948 | 30.24718 | 71 ft | 12 kts | 105° |
| 2026-05-08 17:11 | 59.80875 | 30.25209 | 70 ft | 69 kts | 107° |
| 2026-05-08 17:12 | 59.80678 | 30.26525 | 89 ft | 128 kts | 107° |
| 2026-05-08 17:12 | 59.80379 | 30.28542 | 89 ft | 174 kts | 105° |
| 2026-05-08 17:12 | 59.80057 | 30.30900 | 476 ft | 177 kts | 104° |
| 2026-05-08 17:12 | 59.79730 | 30.33237 | 997 ft | 181 kts | 103° |
| 2026-05-08 17:13 | 59.79377 | 30.35709 | 1482 ft | 185 kts | 103° |
| 2026-05-08 17:13 | 59.79000 | 30.38137 | 1993 ft | 190 kts | 103° |
| 2026-05-08 17:13 | 59.78589 | 30.40771 | 2271 ft | 207 kts | 104° |
| 2026-05-08 17:13 | 59.78143 | 30.43612 | 2605 ft | 223 kts | 104° |
| 2026-05-08 17:14 | 59.77674 | 30.46694 | 2904 ft | 244 kts | 103° |
| 2026-05-08 17:14 | 59.77198 | 30.50011 | 3390 ft | 255 kts | 102° |
| 2026-05-08 17:14 | 59.76710 | 30.53436 | 4055 ft | 259 kts | 103° |
| 2026-05-08 17:14 | 59.76187 | 30.56876 | 4772 ft | 262 kts | 104° |
| 2026-05-08 17:15 | 59.75648 | 30.60414 | 5329 ft | 272 kts | 103° |
| 2026-05-08 17:15 | 59.75124 | 30.64027 | 6047 ft | 274 kts | 102° |
| 2026-05-08 17:15 | 59.74616 | 30.67679 | 6777 ft | 275 kts | 102° |
| 2026-05-08 17:15 | 59.74121 | 30.71352 | 7466 ft | 277 kts | 102° |
| 2026-05-08 17:16 | 59.73589 | 30.75046 | 8116 ft | 280 kts | 102° |
| 2026-05-08 17:16 | 59.73039 | 30.78783 | 8744 ft | 284 kts | 102° |
| 2026-05-08 17:16 | 59.72481 | 30.82573 | 9365 ft | 288 kts | 101° |
| 2026-05-08 17:16 | 59.71917 | 30.86415 | 10000 ft | 292 kts | 101° |
| 2026-05-08 17:17 | 59.71347 | 30.90310 | 10557 ft | 298 kts | 100° |
| 2026-05-08 17:17 | 59.70758 | 30.94367 | 10790 ft | 317 kts | 101° |
| 2026-05-08 17:17 | 59.70131 | 30.98703 | 10964 ft | 338 kts | 101° |
| 2026-05-08 17:17 | 59.69460 | 31.03327 | 11133 ft | 360 kts | 101° |
| 2026-05-08 17:18 | 59.68754 | 31.08157 | 11386 ft | 378 kts | 102° |
| 2026-05-08 17:18 | 59.68007 | 31.13227 | 11875 ft | 390 kts | 102° |
| 2026-05-08 17:18 | 59.67237 | 31.18440 | 12496 ft | 398 kts | 102° |
| 2026-05-08 17:18 | 59.66449 | 31.23755 | 13235 ft | 405 kts | 102° |
| 2026-05-08 17:19 | 59.65648 | 31.29140 | 13941 ft | 413 kts | 102° |
| 2026-05-08 17:19 | 59.64829 | 31.34643 | 14578 ft | 420 kts | 103° |
| 2026-05-08 17:19 | 59.63996 | 31.40212 | 15242 ft | 426 kts | 102° |
| 2026-05-08 17:19 | 59.63147 | 31.45888 | 15766 ft | 435 kts | 103° |
| 2026-05-08 17:20 | 59.62278 | 31.51681 | 16392 ft | 441 kts | 103° |
| 2026-05-08 17:20 | 59.61398 | 31.57516 | 17040 ft | 446 kts | 103° |
| 2026-05-08 17:20 | 59.60502 | 31.63442 | 17674 ft | 452 kts | 104° |
| 2026-05-08 17:20 | 59.59594 | 31.69427 | 18301 ft | 458 kts | 104° |
| 2026-05-08 17:21 | 59.58672 | 31.75479 | 18879 ft | 463 kts | 105° |
| 2026-05-08 17:21 | 59.57737 | 31.81600 | 19432 ft | 468 kts | 105° |
| 2026-05-08 17:21 | 59.56791 | 31.87766 | 19983 ft | 472 kts | 105° |
| 2026-05-08 17:21 | 59.55834 | 31.93996 | 20551 ft | 477 kts | 105° |
| 2026-05-08 17:22 | 59.54888 | 32.00127 | 21069 ft | 481 kts | 105° |
| 2026-05-08 17:22 | 59.53929 | 32.06274 | 21580 ft | 483 kts | 107° |
| 2026-05-08 17:22 | 59.52495 | 32.12395 | 21927 ft | 491 kts | 125° |
| 2026-05-08 17:22 | 59.50227 | 32.17399 | 22367 ft | 490 kts | 139° |
| 2026-05-08 17:23 | 59.47754 | 32.21977 | 22735 ft | 497 kts | 139° |
| 2026-05-08 17:23 | 59.45241 | 32.26696 | 23262 ft | 501 kts | 139° |
| 2026-05-08 17:23 | 59.42734 | 32.31475 | 23880 ft | 503 kts | 138° |
| 2026-05-08 17:23 | 59.40228 | 32.36304 | 24341 ft | 506 kts | 138° |
| 2026-05-08 17:24 | 59.37715 | 32.41176 | 24832 ft | 509 kts | 138° |
| 2026-05-08 17:24 | 59.35191 | 32.46077 | 25314 ft | 511 kts | 138° |
| 2026-05-08 17:24 | 59.32668 | 32.50973 | 25950 ft | 507 kts | 139° |
| 2026-05-08 17:24 | 59.30169 | 32.55812 | 26638 ft | 505 kts | 139° |
| 2026-05-08 17:25 | 59.27657 | 32.60655 | 27037 ft | 509 kts | 139° |
| 2026-05-08 17:25 | 59.25117 | 32.65533 | 27357 ft | 515 kts | 139° |
| 2026-05-08 17:25 | 59.22550 | 32.70451 | 27749 ft | 518 kts | 139° |
| 2026-05-08 17:25 | 59.19973 | 32.75378 | 28202 ft | 520 kts | 140° |
| 2026-05-08 17:26 | 59.17387 | 32.80314 | 28658 ft | 521 kts | 140° |
| 2026-05-08 17:26 | 59.14788 | 32.85266 | 29074 ft | 524 kts | 140° |
| 2026-05-08 17:26 | 59.12207 | 32.90169 | 29448 ft | 526 kts | 140° |
| 2026-05-08 17:26 | 59.09581 | 32.95149 | 29804 ft | 529 kts | 140° |
| 2026-05-08 17:27 | 59.06968 | 33.00093 | 30217 ft | 529 kts | 140° |
| 2026-05-08 17:27 | 59.04405 | 33.04934 | 30695 ft | 527 kts | 140° |
| 2026-05-08 17:27 | 59.01783 | 33.09879 | 31186 ft | 524 kts | 140° |
| 2026-05-08 17:27 | 58.99167 | 33.14797 | 31648 ft | 522 kts | 140° |
| 2026-05-08 17:28 | 58.96559 | 33.19689 | 32060 ft | 521 kts | 140° |
| 2026-05-08 17:28 | 58.93951 | 33.24570 | 32452 ft | 521 kts | 140° |
| 2026-05-08 17:28 | 58.91348 | 33.29429 | 32829 ft | 520 kts | 140° |
| 2026-05-08 17:28 | 58.88746 | 33.34272 | 33207 ft | 519 kts | 140° |
| 2026-05-08 17:29 | 58.83511 | 33.43978 | 33293 ft | 522 kts | 140° |
| 2026-05-08 17:29 | 58.78286 | 33.53637 | 33290 ft | 518 kts | 140° |
| 2026-05-08 17:30 | 58.73083 | 33.63215 | 33294 ft | 516 kts | 141° |
| 2026-05-08 17:30 | 58.67890 | 33.72730 | 33294 ft | 516 kts | 141° |
| 2026-05-08 17:31 | 58.62682 | 33.82230 | 33293 ft | 516 kts | 141° |
| 2026-05-08 17:31 | 58.57468 | 33.91709 | 33286 ft | 516 kts | 142° |
| 2026-05-08 17:32 | 58.52341 | 34.00976 | 33284 ft | 517 kts | 142° |
| 2026-05-08 17:32 | 58.47102 | 34.10410 | 33284 ft | 518 kts | 142° |
| 2026-05-08 17:33 | 58.41849 | 34.19834 | 33282 ft | 518 kts | 142° |
| 2026-05-08 17:33 | 58.36581 | 34.29243 | 33269 ft | 519 kts | 143° |
| 2026-05-08 17:34 | 58.31333 | 34.38577 | 33273 ft | 520 kts | 143° |
| 2026-05-08 17:34 | 58.26006 | 34.48017 | 33269 ft | 520 kts | 143° |
| 2026-05-08 17:35 | 58.20465 | 34.56560 | 33271 ft | 511 kts | 154° |
| 2026-05-08 17:35 | 58.14306 | 34.63013 | 33263 ft | 500 kts | 164° |
| 2026-05-08 17:36 | 58.07893 | 34.68072 | 33264 ft | 500 kts | 165° |
| 2026-05-08 17:36 | 58.01477 | 34.73152 | 33257 ft | 501 kts | 165° |
| 2026-05-08 17:37 | 57.95075 | 34.78280 | 33255 ft | 500 kts | 165° |
| 2026-05-08 17:37 | 57.88680 | 34.83402 | 33248 ft | 499 kts | 165° |
| 2026-05-08 17:38 | 57.83368 | 34.87636 | 33249 ft | 498 kts | 165° |
| 2026-05-08 17:38 | 57.76985 | 34.92704 | 33233 ft | 498 kts | 165° |
| 2026-05-08 17:39 | 57.70632 | 34.97879 | 33243 ft | 501 kts | 161° |
| 2026-05-08 17:39 | 57.64640 | 35.04261 | 33244 ft | 506 kts | 156° |
| 2026-05-08 17:40 | 57.58571 | 35.10946 | 33240 ft | 506 kts | 156° |
| 2026-05-08 17:40 | 57.52524 | 35.17524 | 33213 ft | 506 kts | 156° |
| 2026-05-08 17:41 | 57.46446 | 35.24063 | 33225 ft | 504 kts | 156° |
| 2026-05-08 17:41 | 57.40373 | 35.30556 | 33225 ft | 502 kts | 157° |
| 2026-05-08 17:42 | 57.34313 | 35.37012 | 33226 ft | 502 kts | 157° |
| 2026-05-08 17:42 | 57.28264 | 35.43436 | 33225 ft | 501 kts | 157° |
| 2026-05-08 17:43 | 57.22222 | 35.49828 | 33210 ft | 500 kts | 156° |
| 2026-05-08 17:43 | 57.16179 | 35.56196 | 33225 ft | 500 kts | 157° |
| 2026-05-08 17:44 | 57.10131 | 35.62545 | 33221 ft | 501 kts | 157° |
| 2026-05-08 17:44 | 57.04075 | 35.68880 | 33221 ft | 501 kts | 157° |
| 2026-05-08 17:45 | 56.98026 | 35.75184 | 33224 ft | 500 kts | 156° |
| 2026-05-08 17:45 | 56.91974 | 35.81468 | 33209 ft | 500 kts | 156° |
| 2026-05-08 17:46 | 56.85967 | 35.87683 | 33211 ft | 499 kts | 156° |
| 2026-05-08 17:46 | 56.79923 | 35.93914 | 33218 ft | 499 kts | 156° |
| 2026-05-08 17:47 | 56.74460 | 36.01404 | 33214 ft | 512 kts | 136° |
| 2026-05-08 17:47 | 56.72284 | 36.06591 | 33218 ft | 519 kts | 125° |
| 2026-05-08 17:47 | 56.71124 | 36.10509 | 33199 ft | 522 kts | 117° |
| 2026-05-08 17:48 | 56.67903 | 36.24769 | 33211 ft | 525 kts | 115° |
| 2026-05-08 17:48 | 56.65083 | 36.37015 | 33207 ft | 525 kts | 116° |
| 2026-05-08 17:49 | 56.62162 | 36.49191 | 33209 ft | 526 kts | 116° |
| 2026-05-08 17:49 | 56.58828 | 36.60877 | 33195 ft | 516 kts | 133° |
| 2026-05-08 17:50 | 56.56365 | 36.65520 | 33214 ft | 507 kts | 145° |
| 2026-05-08 17:50 | 56.53564 | 36.69158 | 33215 ft | 498 kts | 156° |
| 2026-05-08 17:50 | 56.47314 | 36.74151 | 33213 ft | 491 kts | 163° |
| 2026-05-08 17:51 | 56.41010 | 36.79020 | 33209 ft | 495 kts | 162° |
| 2026-05-08 17:51 | 56.34690 | 36.84032 | 33207 ft | 497 kts | 162° |
| 2026-05-08 17:52 | 56.28366 | 36.89069 | 33175 ft | 494 kts | 161° |
| 2026-05-08 17:53 | 56.19041 | 36.96453 | 33194 ft | 485 kts | 162° |
| 2026-05-08 17:53 | 56.12979 | 37.01222 | 33194 ft | 486 kts | 161° |
| 2026-05-08 17:54 | 56.07231 | 37.07853 | 33203 ft | 500 kts | 143° |
| 2026-05-08 17:54 | 56.02647 | 37.17362 | 33194 ft | 509 kts | 129° |
| 2026-05-08 17:55 | 55.98445 | 37.27350 | 33178 ft | 505 kts | 137° |
| 2026-05-08 17:55 | 55.93242 | 37.35607 | 33196 ft | 497 kts | 149° |
| 2026-05-08 17:56 | 55.87480 | 37.42332 | 33188 ft | 495 kts | 152° |
| 2026-05-08 17:56 | 55.81730 | 37.49108 | 33158 ft | 496 kts | 151° |
| 2026-05-08 17:57 | 55.75996 | 37.55926 | 33177 ft | 495 kts | 150° |
| 2026-05-08 17:57 | 55.70264 | 37.62715 | 33179 ft | 495 kts | 150° |
| 2026-05-08 17:58 | 55.64503 | 37.69414 | 33179 ft | 493 kts | 154° |
| 2026-05-08 17:58 | 55.58483 | 37.75138 | 33186 ft | 491 kts | 157° |
| 2026-05-08 17:59 | 55.52469 | 37.80704 | 33177 ft | 491 kts | 156° |
| 2026-05-08 17:59 | 55.46432 | 37.86354 | 33184 ft | 491 kts | 156° |
| 2026-05-08 18:00 | 55.40387 | 37.92012 | 33179 ft | 492 kts | 156° |
| 2026-05-08 18:00 | 55.31722 | 38.01334 | 33186 ft | 495 kts | 151° |
| 2026-05-08 18:01 | 55.25931 | 38.07866 | 33172 ft | 495 kts | 151° |
| 2026-05-08 18:01 | 55.20118 | 38.14361 | 33167 ft | 495 kts | 151° |
| 2026-05-08 18:02 | 55.15279 | 38.19728 | 33169 ft | 495 kts | 151° |
| 2026-05-08 18:02 | 55.08519 | 38.27193 | 33168 ft | 495 kts | 151° |
| 2026-05-08 18:03 | 55.02691 | 38.33605 | 33155 ft | 494 kts | 151° |
| 2026-05-08 18:03 | 54.96889 | 38.39970 | 33159 ft | 493 kts | 151° |
| 2026-05-08 18:04 | 54.91082 | 38.46317 | 33161 ft | 492 kts | 151° |
| 2026-05-08 18:04 | 54.85280 | 38.52636 | 33158 ft | 492 kts | 151° |
| 2026-05-08 18:05 | 54.79480 | 38.58932 | 33146 ft | 492 kts | 151° |
| 2026-05-08 18:05 | 54.73668 | 38.65219 | 33154 ft | 492 kts | 151° |
| 2026-05-08 18:06 | 54.67859 | 38.71482 | 33150 ft | 492 kts | 151° |
| 2026-05-08 18:06 | 54.62039 | 38.77735 | 33148 ft | 492 kts | 152° |
| 2026-05-08 18:07 | 54.56260 | 38.83925 | 33140 ft | 491 kts | 152° |
| 2026-05-08 18:07 | 54.50450 | 38.90126 | 33135 ft | 490 kts | 151° |
| 2026-05-08 18:08 | 54.44648 | 38.96299 | 33136 ft | 490 kts | 151° |
| 2026-05-08 18:08 | 54.39454 | 39.03516 | 33128 ft | 496 kts | 132° |
| 2026-05-08 18:09 | 54.35927 | 39.13729 | 33136 ft | 503 kts | 112° |
| 2026-05-08 18:09 | 54.33465 | 39.24967 | 33117 ft | 504 kts | 113° |
| 2026-05-08 18:10 | 54.30819 | 39.36009 | 33124 ft | 504 kts | 114° |
| 2026-05-08 18:10 | 54.28102 | 39.47076 | 33109 ft | 504 kts | 114° |
| 2026-05-08 18:11 | 54.25388 | 39.58139 | 33117 ft | 504 kts | 114° |
| 2026-05-08 18:11 | 54.22677 | 39.69190 | 33110 ft | 504 kts | 114° |
| 2026-05-08 18:12 | 54.19959 | 39.80224 | 33104 ft | 503 kts | 114° |
| 2026-05-08 18:12 | 54.17234 | 39.91222 | 33105 ft | 502 kts | 114° |
| 2026-05-08 18:13 | 54.14553 | 40.01995 | 33100 ft | 502 kts | 114° |
| 2026-05-08 18:13 | 54.11840 | 40.12967 | 33110 ft | 503 kts | 112° |
| 2026-05-08 18:14 | 54.09746 | 40.24355 | 33106 ft | 504 kts | 107° |
| 2026-05-08 18:14 | 54.07801 | 40.35840 | 33093 ft | 504 kts | 107° |
| 2026-05-08 18:15 | 54.05835 | 40.47204 | 33099 ft | 504 kts | 108° |
| 2026-05-08 18:15 | 54.03823 | 40.58607 | 33087 ft | 503 kts | 108° |
| 2026-05-08 18:16 | 54.01796 | 40.69994 | 33077 ft | 503 kts | 108° |
| 2026-05-08 18:16 | 53.99765 | 40.81352 | 33076 ft | 501 kts | 108° |
| 2026-05-08 18:17 | 53.97729 | 40.92682 | 33080 ft | 500 kts | 108° |
| 2026-05-08 18:17 | 53.95725 | 41.03763 | 33073 ft | 499 kts | 108° |
| 2026-05-08 18:18 | 53.93813 | 41.15102 | 33080 ft | 499 kts | 106° |
| 2026-05-08 18:18 | 53.92011 | 41.26384 | 33064 ft | 498 kts | 106° |
| 2026-05-08 18:19 | 53.90171 | 41.37714 | 33069 ft | 497 kts | 106° |
| 2026-05-08 18:19 | 53.88301 | 41.49015 | 33071 ft | 497 kts | 107° |
| 2026-05-08 18:20 | 53.86418 | 41.60296 | 33063 ft | 498 kts | 107° |
| 2026-05-08 18:20 | 53.84526 | 41.71584 | 33056 ft | 499 kts | 107° |
| 2026-05-08 18:21 | 53.82610 | 41.82874 | 33056 ft | 499 kts | 107° |
| 2026-05-08 18:21 | 53.80663 | 41.94149 | 33049 ft | 499 kts | 107° |
| 2026-05-08 18:22 | 53.78744 | 42.05208 | 33045 ft | 499 kts | 107° |
| 2026-05-08 18:22 | 53.76784 | 42.16451 | 33044 ft | 499 kts | 107° |
| 2026-05-08 18:23 | 53.74814 | 42.27687 | 33048 ft | 499 kts | 107° |
| 2026-05-08 18:23 | 53.72833 | 42.38917 | 33032 ft | 498 kts | 107° |
| 2026-05-08 18:24 | 53.70848 | 42.50106 | 33029 ft | 497 kts | 107° |
| 2026-05-08 18:24 | 53.68780 | 42.61120 | 33014 ft | 493 kts | 116° |
| 2026-05-08 18:25 | 53.66969 | 42.65975 | 33041 ft | 489 kts | 133° |
| 2026-05-08 18:25 | 53.64481 | 42.69836 | 33015 ft | 486 kts | 147° |
| 2026-05-08 18:25 | 53.61531 | 42.72504 | 33034 ft | 479 kts | 160° |
| 2026-05-08 18:25 | 53.58430 | 42.74605 | 33038 ft | 481 kts | 160° |
| 2026-05-08 18:26 | 53.52211 | 42.78896 | 33032 ft | 485 kts | 159° |
| 2026-05-08 18:26 | 53.47023 | 42.82579 | 33026 ft | 488 kts | 158° |
| 2026-05-08 18:27 | 53.41782 | 42.86339 | 33026 ft | 490 kts | 158° |
| 2026-05-08 18:27 | 53.34489 | 42.91565 | 33018 ft | 490 kts | 158° |
| 2026-05-08 18:28 | 53.28217 | 42.96036 | 33018 ft | 489 kts | 158° |
| 2026-05-08 18:28 | 53.22085 | 43.00393 | 32988 ft | 487 kts | 158° |
| 2026-05-08 18:29 | 53.15858 | 43.04804 | 33010 ft | 485 kts | 158° |
| 2026-05-08 18:29 | 53.09667 | 43.09249 | 33008 ft | 484 kts | 157° |
| 2026-05-08 18:30 | 53.03523 | 43.13835 | 33011 ft | 484 kts | 156° |
| 2026-05-08 18:30 | 52.97384 | 43.18427 | 33012 ft | 484 kts | 156° |
| 2026-05-08 18:31 | 52.91260 | 43.22969 | 33009 ft | 485 kts | 156° |
| 2026-05-08 18:31 | 52.85084 | 43.27520 | 33008 ft | 486 kts | 157° |
| 2026-05-08 18:32 | 52.78900 | 43.32060 | 33005 ft | 487 kts | 156° |
| 2026-05-08 18:32 | 52.72707 | 43.36593 | 33006 ft | 487 kts | 156° |
| 2026-05-08 18:33 | 52.66509 | 43.41116 | 33001 ft | 487 kts | 156° |
| 2026-05-08 18:33 | 52.60304 | 43.45630 | 32997 ft | 488 kts | 156° |
| 2026-05-08 18:34 | 52.54095 | 43.50134 | 32998 ft | 488 kts | 156° |
| 2026-05-08 18:34 | 52.47886 | 43.54623 | 32997 ft | 488 kts | 156° |
| 2026-05-08 18:35 | 52.41673 | 43.59101 | 32996 ft | 487 kts | 156° |
| 2026-05-08 18:35 | 52.35467 | 43.63561 | 32997 ft | 487 kts | 156° |
| 2026-05-08 18:36 | 52.29249 | 43.68015 | 32992 ft | 487 kts | 156° |
| 2026-05-08 18:36 | 52.23045 | 43.72446 | 32995 ft | 487 kts | 156° |
| 2026-05-08 18:37 | 52.16870 | 43.76843 | 32991 ft | 487 kts | 156° |
| 2026-05-08 18:37 | 52.10648 | 43.81259 | 32992 ft | 488 kts | 156° |
| 2026-05-08 18:38 | 52.04409 | 43.85674 | 33003 ft | 488 kts | 156° |
| 2026-05-08 18:38 | 51.98247 | 43.90022 | 32989 ft | 488 kts | 156° |
| 2026-05-08 18:39 | 51.92016 | 43.94405 | 32995 ft | 488 kts | 156° |
| 2026-05-08 18:39 | 51.85785 | 43.98774 | 32994 ft | 487 kts | 156° |
| 2026-05-08 18:40 | 51.79682 | 44.03041 | 32997 ft | 487 kts | 156° |
| 2026-05-08 18:40 | 51.73503 | 44.07348 | 32986 ft | 486 kts | 156° |
| 2026-05-08 18:41 | 51.67288 | 44.11668 | 32989 ft | 486 kts | 156° |
| 2026-05-08 18:41 | 51.61081 | 44.15969 | 32992 ft | 485 kts | 156° |
| 2026-05-08 18:42 | 51.54876 | 44.20256 | 32990 ft | 485 kts | 156° |
| 2026-05-08 18:42 | 51.48663 | 44.24535 | 32986 ft | 485 kts | 156° |
| 2026-05-08 18:43 | 51.42456 | 44.28798 | 32988 ft | 485 kts | 157° |
| 2026-05-08 18:43 | 51.36242 | 44.33054 | 32987 ft | 485 kts | 157° |
| 2026-05-08 18:44 | 51.30029 | 44.37297 | 32999 ft | 486 kts | 157° |
| 2026-05-08 18:44 | 51.23806 | 44.41535 | 32974 ft | 486 kts | 156° |
| 2026-05-08 18:45 | 51.17536 | 44.45298 | 32972 ft | 485 kts | 167° |
| 2026-05-08 18:45 | 51.10854 | 44.46580 | 32988 ft | 485 kts | 181° |
| 2026-05-08 18:46 | 51.04124 | 44.45941 | 32989 ft | 485 kts | 184° |
| 2026-05-08 18:46 | 50.97386 | 44.45201 | 32982 ft | 485 kts | 184° |
| 2026-05-08 18:47 | 50.90649 | 44.44523 | 32988 ft | 485 kts | 184° |
| 2026-05-08 18:47 | 50.83896 | 44.43889 | 32999 ft | 486 kts | 183° |
| 2026-05-08 18:48 | 50.77142 | 44.43268 | 32994 ft | 486 kts | 183° |
| 2026-05-08 18:48 | 50.70382 | 44.42645 | 32998 ft | 487 kts | 183° |
| 2026-05-08 18:49 | 50.63611 | 44.42022 | 32997 ft | 487 kts | 183° |
| 2026-05-08 18:49 | 50.56848 | 44.41399 | 32984 ft | 487 kts | 183° |
| 2026-05-08 18:50 | 50.50078 | 44.40778 | 33007 ft | 487 kts | 183° |
| 2026-05-08 18:50 | 50.43351 | 44.40163 | 33002 ft | 487 kts | 183° |
| 2026-05-08 18:51 | 50.36582 | 44.39546 | 33002 ft | 487 kts | 183° |
| 2026-05-08 18:51 | 50.29801 | 44.38929 | 32997 ft | 488 kts | 183° |
| 2026-05-08 18:52 | 50.23020 | 44.38314 | 33015 ft | 488 kts | 183° |
| 2026-05-08 18:52 | 50.16233 | 44.37701 | 33000 ft | 489 kts | 183° |
| 2026-05-08 18:53 | 50.09508 | 44.37095 | 32995 ft | 489 kts | 183° |
| 2026-05-08 18:53 | 50.02692 | 44.36482 | 33015 ft | 489 kts | 183° |
| 2026-05-08 18:54 | 49.95899 | 44.35873 | 32997 ft | 489 kts | 183° |
| 2026-05-08 18:54 | 49.89105 | 44.35265 | 32996 ft | 489 kts | 183° |
| 2026-05-08 18:55 | 49.78952 | 44.34361 | 32997 ft | 489 kts | 183° |
| 2026-05-08 18:56 | 49.72163 | 44.33758 | 33016 ft | 488 kts | 183° |
| 2026-05-08 18:56 | 49.65372 | 44.33157 | 33016 ft | 488 kts | 183° |
| 2026-05-08 18:57 | 49.58585 | 44.32558 | 33001 ft | 488 kts | 183° |
| 2026-05-08 18:57 | 49.51795 | 44.32444 | 33022 ft | 487 kts | 179° |
| 2026-05-08 18:58 | 49.45057 | 44.32665 | 33009 ft | 488 kts | 178° |
| 2026-05-08 18:58 | 49.38263 | 44.32875 | 33007 ft | 488 kts | 179° |
| 2026-05-08 18:59 | 49.31469 | 44.33056 | 33016 ft | 488 kts | 179° |
| 2026-05-08 18:59 | 49.24672 | 44.33227 | 33019 ft | 488 kts | 179° |
| 2026-05-08 19:00 | 49.19026 | 44.33368 | 33019 ft | 488 kts | 179° |
| 2026-05-08 19:00 | 49.11085 | 44.33569 | 33033 ft | 488 kts | 179° |
| 2026-05-08 19:01 | 49.04291 | 44.33741 | 33026 ft | 488 kts | 179° |
| 2026-05-08 19:01 | 48.97505 | 44.33913 | 33022 ft | 488 kts | 179° |
| 2026-05-08 19:02 | 48.90727 | 44.34083 | 33024 ft | 487 kts | 179° |
| 2026-05-08 19:02 | 48.83953 | 44.34291 | 33017 ft | 484 kts | 175° |
| 2026-05-08 19:02 | 48.80711 | 44.35336 | 33018 ft | 482 kts | 157° |
| 2026-05-08 19:03 | 48.77794 | 44.37792 | 33043 ft | 480 kts | 142° |
| 2026-05-08 19:03 | 48.75356 | 44.41246 | 33017 ft | 480 kts | 128° |
| 2026-05-08 19:03 | 48.73534 | 44.45457 | 33046 ft | 476 kts | 119° |
| 2026-05-08 19:04 | 48.70259 | 44.54216 | 33024 ft | 479 kts | 119° |
| 2026-05-08 19:04 | 48.66888 | 44.62896 | 33017 ft | 482 kts | 120° |
| 2026-05-08 19:05 | 48.63429 | 44.71599 | 33019 ft | 483 kts | 120° |
| 2026-05-08 19:05 | 48.59965 | 44.80312 | 33019 ft | 484 kts | 120° |
| 2026-05-08 19:06 | 48.56497 | 44.89027 | 33010 ft | 484 kts | 120° |
| 2026-05-08 19:06 | 48.53020 | 44.97734 | 33010 ft | 483 kts | 120° |
| 2026-05-08 19:07 | 48.49613 | 45.06239 | 33010 ft | 481 kts | 120° |
| 2026-05-08 19:07 | 48.46164 | 45.14825 | 33007 ft | 481 kts | 120° |
| 2026-05-08 19:08 | 48.42687 | 45.23409 | 33007 ft | 479 kts | 123° |
| 2026-05-08 19:08 | 48.40622 | 45.27348 | 33004 ft | 480 kts | 134° |
| 2026-05-08 19:08 | 48.38111 | 45.30711 | 33011 ft | 481 kts | 142° |
| 2026-05-08 19:09 | 48.32416 | 45.35578 | 33032 ft | 482 kts | 154° |
| 2026-05-08 19:09 | 48.26339 | 45.39887 | 33008 ft | 484 kts | 154° |
| 2026-05-08 19:10 | 48.20249 | 45.44247 | 33005 ft | 485 kts | 154° |
| 2026-05-08 19:10 | 48.14159 | 45.48673 | 33005 ft | 486 kts | 153° |
| 2026-05-08 19:11 | 48.08079 | 45.53109 | 33016 ft | 487 kts | 153° |
| 2026-05-08 19:11 | 48.01990 | 45.57541 | 33009 ft | 486 kts | 153° |
| 2026-05-08 19:12 | 47.95919 | 45.61943 | 33005 ft | 485 kts | 154° |
| 2026-05-08 19:12 | 47.89885 | 45.66306 | 33006 ft | 485 kts | 154° |
| 2026-05-08 19:13 | 47.83813 | 45.70685 | 33001 ft | 484 kts | 154° |
| 2026-05-08 19:13 | 47.77749 | 45.75046 | 33004 ft | 484 kts | 154° |
| 2026-05-08 19:14 | 47.72704 | 45.78667 | 32994 ft | 484 kts | 154° |
| 2026-05-08 19:14 | 47.66638 | 45.83009 | 33002 ft | 484 kts | 154° |
| 2026-05-08 19:15 | 47.60565 | 45.87346 | 32995 ft | 485 kts | 154° |
| 2026-05-08 19:15 | 47.54482 | 45.91678 | 33004 ft | 485 kts | 154° |
| 2026-05-08 19:16 | 47.48395 | 45.96003 | 32998 ft | 485 kts | 154° |
| 2026-05-08 19:16 | 47.42397 | 46.00255 | 32999 ft | 486 kts | 154° |
| 2026-05-08 19:17 | 47.36298 | 46.04566 | 33004 ft | 486 kts | 154° |
| 2026-05-08 19:17 | 47.30202 | 46.08870 | 33000 ft | 486 kts | 154° |
| 2026-05-08 19:18 | 47.24103 | 46.13167 | 33006 ft | 485 kts | 154° |
| 2026-05-08 19:18 | 47.18015 | 46.17446 | 33001 ft | 485 kts | 154° |
| 2026-05-08 19:19 | 47.11961 | 46.21693 | 32999 ft | 485 kts | 154° |
| 2026-05-08 19:19 | 47.06124 | 46.26570 | 32992 ft | 483 kts | 140° |
| 2026-05-08 19:20 | 47.01569 | 46.33739 | 33004 ft | 480 kts | 122° |
| 2026-05-08 19:20 | 46.98033 | 46.42025 | 32999 ft | 480 kts | 121° |
| 2026-05-08 19:21 | 46.94501 | 46.50355 | 32997 ft | 481 kts | 121° |
| 2026-05-08 19:21 | 46.90909 | 46.58650 | 33002 ft | 482 kts | 122° |
| 2026-05-08 19:22 | 46.87294 | 46.66903 | 32996 ft | 482 kts | 121° |
| 2026-05-08 19:22 | 46.83672 | 46.75145 | 32994 ft | 482 kts | 122° |
| 2026-05-08 19:23 | 46.80072 | 46.83318 | 32991 ft | 481 kts | 122° |
| 2026-05-08 19:23 | 46.76449 | 46.91524 | 32991 ft | 481 kts | 121° |
| 2026-05-08 19:24 | 46.72816 | 46.99730 | 32993 ft | 481 kts | 122° |
| 2026-05-08 19:24 | 46.69239 | 47.07786 | 32990 ft | 481 kts | 122° |
| 2026-05-08 19:25 | 46.65642 | 47.16000 | 32987 ft | 481 kts | 121° |
| 2026-05-08 19:25 | 46.62058 | 47.24240 | 32986 ft | 482 kts | 121° |
| 2026-05-08 19:26 | 46.58460 | 47.32481 | 32988 ft | 483 kts | 121° |
| 2026-05-08 19:26 | 46.54849 | 47.40709 | 32986 ft | 483 kts | 121° |
| 2026-05-08 19:27 | 46.51223 | 47.48942 | 32982 ft | 484 kts | 121° |
| 2026-05-08 19:27 | 46.47590 | 47.57167 | 32981 ft | 485 kts | 121° |
| 2026-05-08 19:28 | 46.43960 | 47.65363 | 32987 ft | 486 kts | 122° |
| 2026-05-08 19:28 | 46.40296 | 47.73612 | 32982 ft | 487 kts | 122° |
| 2026-05-08 19:29 | 46.36618 | 47.81868 | 32995 ft | 488 kts | 122° |
| 2026-05-08 19:29 | 46.32930 | 47.90126 | 32992 ft | 488 kts | 122° |
| 2026-05-08 19:30 | 46.29419 | 47.98521 | 32994 ft | 487 kts | 115° |
| 2026-05-08 19:30 | 46.27043 | 48.07471 | 32998 ft | 486 kts | 104° |
| 2026-05-08 19:31 | 46.25573 | 48.16999 | 32996 ft | 485 kts | 101° |
| 2026-05-08 19:31 | 46.24179 | 48.26556 | 32988 ft | 486 kts | 101° |
| 2026-05-08 19:32 | 46.22729 | 48.36097 | 32991 ft | 486 kts | 102° |
| 2026-05-08 19:32 | 46.21252 | 48.45646 | 32985 ft | 487 kts | 102° |
| 2026-05-08 19:33 | 46.19308 | 48.54884 | 32974 ft | 485 kts | 121° |
| 2026-05-08 19:33 | 46.17224 | 48.58700 | 32982 ft | 485 kts | 137° |
| 2026-05-08 19:33 | 46.14526 | 48.61603 | 32989 ft | 485 kts | 151° |
| 2026-05-08 19:33 | 46.11426 | 48.63466 | 32978 ft | 481 kts | 165° |
| 2026-05-08 19:34 | 46.08195 | 48.64733 | 32989 ft | 482 kts | 166° |
| 2026-05-08 19:34 | 46.01685 | 48.67179 | 32993 ft | 484 kts | 166° |
| 2026-05-08 19:35 | 45.95171 | 48.69689 | 32989 ft | 487 kts | 166° |
| 2026-05-08 19:35 | 45.88632 | 48.72284 | 32991 ft | 488 kts | 165° |
| 2026-05-08 19:36 | 45.82094 | 48.74904 | 32991 ft | 487 kts | 165° |
| 2026-05-08 19:36 | 45.75576 | 48.77509 | 32987 ft | 486 kts | 165° |
| 2026-05-08 19:37 | 45.69112 | 48.80083 | 32990 ft | 485 kts | 165° |
| 2026-05-08 19:37 | 45.62609 | 48.82665 | 33002 ft | 484 kts | 165° |
| 2026-05-08 19:38 | 45.56119 | 48.85234 | 33002 ft | 484 kts | 165° |
| 2026-05-08 19:38 | 45.49618 | 48.87802 | 33017 ft | 484 kts | 165° |
| 2026-05-08 19:39 | 45.43105 | 48.90366 | 33016 ft | 486 kts | 165° |
| 2026-05-08 19:39 | 45.36582 | 48.92932 | 33023 ft | 487 kts | 165° |
| 2026-05-08 19:40 | 45.30081 | 48.95482 | 33014 ft | 488 kts | 165° |
| 2026-05-08 19:40 | 45.23530 | 48.98044 | 33028 ft | 489 kts | 164° |
| 2026-05-08 19:41 | 45.17075 | 49.00564 | 33020 ft | 489 kts | 164° |
| 2026-05-08 19:41 | 45.10519 | 49.03117 | 33034 ft | 488 kts | 164° |
| 2026-05-08 19:42 | 45.03984 | 49.05656 | 33035 ft | 486 kts | 164° |
| 2026-05-08 19:42 | 44.97469 | 49.08180 | 33043 ft | 485 kts | 164° |
| 2026-05-08 19:43 | 44.90960 | 49.10697 | 33045 ft | 484 kts | 164° |
| 2026-05-08 19:43 | 44.84475 | 49.13198 | 33051 ft | 483 kts | 164° |
| 2026-05-08 19:44 | 44.77998 | 49.15692 | 33050 ft | 483 kts | 164° |
| 2026-05-08 19:44 | 44.71504 | 49.18184 | 33065 ft | 483 kts | 164° |
| 2026-05-08 19:45 | 44.65044 | 49.20658 | 33069 ft | 484 kts | 164° |
| 2026-05-08 19:45 | 44.58540 | 49.23144 | 33065 ft | 485 kts | 164° |
| 2026-05-08 19:46 | 44.52014 | 49.25632 | 33067 ft | 486 kts | 164° |
| 2026-05-08 19:46 | 44.42213 | 49.29358 | 33088 ft | 487 kts | 164° |
| 2026-05-08 19:47 | 44.35678 | 49.31835 | 33083 ft | 486 kts | 164° |
| 2026-05-08 19:47 | 44.29156 | 49.34302 | 33078 ft | 485 kts | 164° |
| 2026-05-08 19:48 | 44.22654 | 49.36754 | 33087 ft | 483 kts | 164° |
| 2026-05-08 19:48 | 44.16170 | 49.39196 | 33093 ft | 482 kts | 164° |
| 2026-05-08 19:49 | 44.09688 | 49.41633 | 33091 ft | 482 kts | 164° |
| 2026-05-08 19:49 | 44.03244 | 49.44048 | 33097 ft | 482 kts | 164° |
| 2026-05-08 19:50 | 43.99988 | 49.44966 | 33088 ft | 480 kts | 177° |
| 2026-05-08 19:50 | 43.96665 | 49.44600 | 33103 ft | 480 kts | 194° |
| 2026-05-08 19:50 | 43.93577 | 49.42875 | 33125 ft | 482 kts | 212° |
| 2026-05-08 19:50 | 43.90945 | 49.39983 | 33314 ft | 485 kts | 227° |
| 2026-05-08 19:51 | 43.88950 | 49.36243 | 33790 ft | 481 kts | 241° |
| 2026-05-08 19:51 | 43.87569 | 49.32060 | 34103 ft | 475 kts | 252° |
| 2026-05-08 19:51 | 43.87017 | 49.27589 | 34114 ft | 468 kts | 269° |
| 2026-05-08 19:51 | 43.87021 | 49.23063 | 34104 ft | 472 kts | 270° |
| 2026-05-08 19:52 | 43.87107 | 49.13899 | 34107 ft | 479 kts | 270° |
| 2026-05-08 19:52 | 43.87137 | 49.04614 | 34102 ft | 484 kts | 270° |
| 2026-05-08 19:53 | 43.87102 | 48.95259 | 34109 ft | 486 kts | 269° |
| 2026-05-08 19:53 | 43.87036 | 48.85875 | 34097 ft | 486 kts | 269° |
| 2026-05-08 19:54 | 43.86961 | 48.76573 | 34099 ft | 484 kts | 269° |
| 2026-05-08 19:54 | 43.86882 | 48.67267 | 34096 ft | 482 kts | 269° |
| 2026-05-08 19:55 | 43.86797 | 48.57980 | 34101 ft | 481 kts | 269° |
| 2026-05-08 19:55 | 43.86705 | 48.48698 | 34099 ft | 482 kts | 269° |
| 2026-05-08 19:56 | 43.86605 | 48.39397 | 34108 ft | 483 kts | 269° |
| 2026-05-08 19:56 | 43.86497 | 48.30077 | 34100 ft | 485 kts | 269° |
| 2026-05-08 19:57 | 43.86381 | 48.20725 | 34110 ft | 486 kts | 269° |
| 2026-05-08 19:57 | 43.86259 | 48.11398 | 34101 ft | 487 kts | 269° |
| 2026-05-08 19:58 | 43.86127 | 48.02011 | 34109 ft | 488 kts | 269° |
| 2026-05-08 19:58 | 43.85990 | 47.92757 | 34099 ft | 488 kts | 269° |
| 2026-05-08 19:59 | 43.85843 | 47.83364 | 34105 ft | 487 kts | 269° |
| 2026-05-08 19:59 | 43.85688 | 47.73992 | 34102 ft | 486 kts | 269° |
| 2026-05-08 20:00 | 43.85526 | 47.64622 | 34105 ft | 486 kts | 269° |
| 2026-05-08 20:00 | 43.85386 | 47.56837 | 34113 ft | 486 kts | 269° |
| 2026-05-08 20:01 | 43.85210 | 47.47472 | 34107 ft | 486 kts | 269° |
| 2026-05-08 20:01 | 43.85026 | 47.38094 | 34108 ft | 487 kts | 269° |
| 2026-05-08 20:02 | 43.84835 | 47.28713 | 34105 ft | 487 kts | 269° |
| 2026-05-08 20:02 | 43.84636 | 47.19330 | 34108 ft | 488 kts | 269° |
| 2026-05-08 20:03 | 43.84430 | 47.09990 | 34113 ft | 488 kts | 269° |
| 2026-05-08 20:03 | 43.84215 | 47.00573 | 34116 ft | 489 kts | 269° |
| 2026-05-08 20:04 | 43.83996 | 46.91308 | 34116 ft | 489 kts | 269° |
| 2026-05-08 20:04 | 43.83766 | 46.81880 | 34114 ft | 489 kts | 269° |
| 2026-05-08 20:05 | 43.83588 | 46.72459 | 34116 ft | 489 kts | 272° |
| 2026-05-08 20:05 | 43.84314 | 46.63117 | 34128 ft | 487 kts | 280° |
| 2026-05-08 20:06 | 43.85397 | 46.53848 | 34124 ft | 488 kts | 280° |
| 2026-05-08 20:06 | 43.86450 | 46.44569 | 34124 ft | 488 kts | 279° |
| 2026-05-08 20:07 | 43.87458 | 46.35328 | 34126 ft | 488 kts | 279° |
| 2026-05-08 20:07 | 43.88455 | 46.26035 | 34125 ft | 488 kts | 279° |
| 2026-05-08 20:08 | 43.89447 | 46.16736 | 34121 ft | 487 kts | 279° |
| 2026-05-08 20:08 | 43.90432 | 46.07437 | 34124 ft | 488 kts | 279° |
| 2026-05-08 20:09 | 43.91396 | 45.98273 | 34131 ft | 488 kts | 279° |
| 2026-05-08 20:09 | 43.92366 | 45.88978 | 34011 ft | 484 kts | 279° |
| 2026-05-08 20:10 | 43.92876 | 45.84350 | 33704 ft | 485 kts | 280° |
| 2026-05-08 20:10 | 43.93411 | 45.79722 | 33326 ft | 487 kts | 280° |
| 2026-05-08 20:10 | 43.93949 | 45.75140 | 32950 ft | 488 kts | 280° |
| 2026-05-08 20:10 | 43.94494 | 45.70490 | 32566 ft | 487 kts | 280° |
| 2026-05-08 20:11 | 43.95029 | 45.65869 | 31995 ft | 483 kts | 280° |
| 2026-05-08 20:11 | 43.95553 | 45.61288 | 31481 ft | 478 kts | 280° |
| 2026-05-08 20:11 | 43.96068 | 45.56756 | 30963 ft | 474 kts | 280° |
| 2026-05-08 20:11 | 43.96575 | 45.52262 | 30458 ft | 469 kts | 279° |
| 2026-05-08 20:12 | 43.97076 | 45.47805 | 29906 ft | 465 kts | 279° |
| 2026-05-08 20:12 | 43.97571 | 45.43386 | 29361 ft | 461 kts | 279° |
| 2026-05-08 20:12 | 43.98061 | 45.39002 | 28849 ft | 457 kts | 279° |
| 2026-05-08 20:12 | 43.98543 | 45.34670 | 28334 ft | 452 kts | 280° |
| 2026-05-08 20:13 | 43.99022 | 45.30363 | 27832 ft | 448 kts | 280° |
| 2026-05-08 20:13 | 43.99494 | 45.26095 | 27326 ft | 445 kts | 280° |
| 2026-05-08 20:13 | 43.99961 | 45.21860 | 26825 ft | 441 kts | 280° |
| 2026-05-08 20:13 | 44.00416 | 45.17668 | 26342 ft | 438 kts | 279° |
| 2026-05-08 20:14 | 44.00861 | 45.13495 | 25860 ft | 435 kts | 279° |
| 2026-05-08 20:14 | 44.01298 | 45.09352 | 25373 ft | 432 kts | 279° |
| 2026-05-08 20:14 | 44.01732 | 45.05235 | 24903 ft | 430 kts | 280° |
| 2026-05-08 20:14 | 44.02162 | 45.01139 | 24430 ft | 427 kts | 280° |
| 2026-05-08 20:15 | 44.02576 | 44.97198 | 23974 ft | 425 kts | 280° |
| 2026-05-08 20:15 | 44.03000 | 44.93145 | 23468 ft | 423 kts | 280° |
| 2026-05-08 20:15 | 44.03422 | 44.89108 | 22941 ft | 421 kts | 280° |
| 2026-05-08 20:15 | 44.03839 | 44.85095 | 22454 ft | 418 kts | 280° |
| 2026-05-08 20:16 | 44.04251 | 44.81116 | 21992 ft | 414 kts | 280° |
| 2026-05-08 20:16 | 44.04660 | 44.77164 | 21523 ft | 411 kts | 280° |
| 2026-05-08 20:16 | 44.05063 | 44.73256 | 21078 ft | 418 kts | 280° |
| 2026-05-08 20:16 | 44.05479 | 44.69213 | 20621 ft | 428 kts | 280° |
| 2026-05-08 20:17 | 44.05904 | 44.65072 | 20137 ft | 436 kts | 279° |
| 2026-05-08 20:17 | 44.06325 | 44.60929 | 19624 ft | 430 kts | 279° |
| 2026-05-08 20:17 | 44.06747 | 44.56817 | 19140 ft | 427 kts | 280° |
| 2026-05-08 20:17 | 44.07212 | 44.52795 | 18654 ft | 415 kts | 281° |
| 2026-05-08 20:18 | 44.07691 | 44.48887 | 18153 ft | 404 kts | 282° |
| 2026-05-08 20:18 | 44.08162 | 44.45082 | 17655 ft | 394 kts | 282° |
| 2026-05-08 20:18 | 44.08618 | 44.41344 | 17198 ft | 388 kts | 281° |
| 2026-05-08 20:18 | 44.09062 | 44.37667 | 16754 ft | 383 kts | 281° |
| 2026-05-08 20:19 | 44.09498 | 44.34025 | 16324 ft | 384 kts | 281° |
| 2026-05-08 20:19 | 44.09934 | 44.30356 | 15878 ft | 383 kts | 281° |
| 2026-05-08 20:19 | 44.10364 | 44.26712 | 15444 ft | 380 kts | 281° |
| 2026-05-08 20:19 | 44.10789 | 44.23105 | 15000 ft | 376 kts | 281° |
| 2026-05-08 20:20 | 44.11209 | 44.19527 | 14573 ft | 374 kts | 281° |
| 2026-05-08 20:20 | 44.11626 | 44.15970 | 14136 ft | 371 kts | 281° |
| 2026-05-08 20:20 | 44.12038 | 44.12447 | 13692 ft | 367 kts | 281° |
| 2026-05-08 20:20 | 44.12445 | 44.08954 | 13236 ft | 365 kts | 281° |
| 2026-05-08 20:21 | 44.12851 | 44.05464 | 12799 ft | 365 kts | 281° |
| 2026-05-08 20:21 | 44.13250 | 44.02029 | 12373 ft | 363 kts | 281° |
| 2026-05-08 20:21 | 44.13635 | 43.98689 | 11956 ft | 360 kts | 281° |
| 2026-05-08 20:21 | 44.14025 | 43.95286 | 11531 ft | 352 kts | 281° |
| 2026-05-08 20:22 | 44.14407 | 43.91963 | 11345 ft | 337 kts | 281° |
| 2026-05-08 20:22 | 44.14760 | 43.88873 | 11125 ft | 310 kts | 281° |
| 2026-05-08 20:22 | 44.15088 | 43.86004 | 10788 ft | 292 kts | 281° |
| 2026-05-08 20:22 | 44.15405 | 43.83245 | 10396 ft | 283 kts | 281° |
| 2026-05-08 20:23 | 44.15714 | 43.80561 | 10104 ft | 278 kts | 281° |
| 2026-05-08 20:23 | 44.16015 | 43.77919 | 9846 ft | 275 kts | 281° |
| 2026-05-08 20:23 | 44.16315 | 43.75286 | 9596 ft | 275 kts | 281° |
| 2026-05-08 20:23 | 44.16613 | 43.72656 | 9358 ft | 275 kts | 281° |
| 2026-05-08 20:24 | 44.16762 | 43.70015 | 9071 ft | 276 kts | 267° |
| 2026-05-08 20:24 | 44.16491 | 43.67345 | 8776 ft | 280 kts | 261° |
| 2026-05-08 20:24 | 44.16102 | 43.64676 | 8469 ft | 282 kts | 260° |
| 2026-05-08 20:24 | 44.15706 | 43.62025 | 8104 ft | 275 kts | 260° |
| 2026-05-08 20:25 | 44.15330 | 43.59436 | 7751 ft | 271 kts | 261° |
| 2026-05-08 20:25 | 44.14975 | 43.56924 | 7400 ft | 265 kts | 261° |
| 2026-05-08 20:25 | 44.14629 | 43.54419 | 7071 ft | 262 kts | 261° |
| 2026-05-08 20:25 | 44.14292 | 43.51941 | 6706 ft | 259 kts | 261° |
| 2026-05-08 20:26 | 44.13962 | 43.49495 | 6383 ft | 255 kts | 261° |
| 2026-05-08 20:26 | 44.13639 | 43.47092 | 6059 ft | 250 kts | 262° |
| 2026-05-08 20:26 | 44.13323 | 43.44735 | 5749 ft | 245 kts | 262° |
| 2026-05-08 20:26 | 44.13018 | 43.42450 | 5542 ft | 235 kts | 262° |
| 2026-05-08 20:27 | 44.12722 | 43.40243 | 5242 ft | 229 kts | 262° |
| 2026-05-08 20:27 | 44.12433 | 43.38093 | 4989 ft | 222 kts | 262° |
| 2026-05-08 20:27 | 44.12153 | 43.36008 | 4716 ft | 215 kts | 262° |
| 2026-05-08 20:27 | 44.11885 | 43.33998 | 4458 ft | 205 kts | 265° |
| 2026-05-08 20:28 | 44.12017 | 43.32145 | 4175 ft | 187 kts | 295° |
| 2026-05-08 20:28 | 44.12599 | 43.30618 | 3925 ft | 172 kts | 300° |
| 2026-05-08 20:28 | 44.13188 | 43.29223 | 3682 ft | 164 kts | 302° |
| 2026-05-08 20:28 | 44.13784 | 43.27880 | 3513 ft | 161 kts | 301° |
| 2026-05-08 20:29 | 44.14366 | 43.26592 | 3252 ft | 154 kts | 301° |
| 2026-05-08 20:29 | 44.14933 | 43.25344 | 2982 ft | 152 kts | 301° |
| 2026-05-08 20:29 | 44.15498 | 43.24107 | 2838 ft | 150 kts | 301° |
| 2026-05-08 20:29 | 44.16065 | 43.22855 | 2745 ft | 154 kts | 301° |
| 2026-05-08 20:30 | 44.16626 | 43.21593 | 2692 ft | 152 kts | 301° |
| 2026-05-08 20:30 | 44.17197 | 43.20360 | 2657 ft | 152 kts | 301° |
| 2026-05-08 20:30 | 44.17751 | 43.19103 | 2546 ft | 152 kts | 298° |
| 2026-05-08 20:30 | 44.18298 | 43.17861 | 2375 ft | 153 kts | 302° |
| 2026-05-08 20:31 | 44.18909 | 43.16657 | 2164 ft | 152 kts | 302° |
| 2026-05-08 20:31 | 44.19484 | 43.15406 | 1944 ft | 153 kts | 299° |
| 2026-05-08 20:31 | 44.20044 | 43.14115 | 1725 ft | 157 kts | 301° |
| 2026-05-08 20:31 | 44.20639 | 43.12796 | 1480 ft | 162 kts | 302° |
| 2026-05-08 20:32 | 44.21245 | 43.11465 | 1289 ft | 165 kts | 303° |
| 2026-05-08 20:32 | 44.21853 | 43.10115 | 1092 ft | 163 kts | 303° |
| 2026-05-08 20:32 | 44.22436 | 43.08845 | 1058 ft | 143 kts | 302° |
| 2026-05-08 20:32 | 44.22883 | 43.07856 | 1055 ft | 98 kts | 302° |
| 2026-05-08 20:33 | 44.23165 | 43.07232 | 1053 ft | 54 kts | 303° |
| 2026-05-08 20:33 | 44.23324 | 43.06886 | 1051 ft | 37 kts | 302° |
| 2026-05-08 20:33 | 44.23449 | 43.06609 | 1055 ft | 31 kts | 303° |
| 2026-05-08 20:33 | 44.23541 | 43.06415 | 1056 ft | 16 kts | 305° |
| 2026-05-08 20:34 | 44.23594 | 43.06323 | 1056 ft | 6 kts | 309° |
| 2026-05-08 20:34 | 44.23598 | 43.06272 | 1055 ft | 5 kts | 229° |
| 2026-05-08 20:34 | 44.23532 | 43.06397 | 1055 ft | 17 kts | 114° |
| 2026-05-08 20:35 | 44.23480 | 43.06537 | 1055 ft | 17 kts | 120° |
| 2026-05-08 20:35 | 44.23420 | 43.06674 | 1054 ft | 17 kts | 122° |
| 2026-05-08 20:35 | 44.23353 | 43.06821 | 1051 ft | 19 kts | 122° |
| 2026-05-08 20:35 | 44.23276 | 43.06989 | 1050 ft | 22 kts | 123° |
| 2026-05-08 20:36 | 44.23188 | 43.07182 | 1052 ft | 24 kts | 122° |
| 2026-05-08 20:36 | 44.23100 | 43.07377 | 1054 ft | 24 kts | 122° |
| 2026-05-08 20:36 | 44.23012 | 43.07573 | 1056 ft | 24 kts | 122° |
| 2026-05-08 20:36 | 44.22923 | 43.07767 | 1033 ft | 24 kts | 122° |
| 2026-05-08 20:37 | 44.22835 | 43.07963 | 1053 ft | 24 kts | 122° |
| 2026-05-08 20:37 | 44.22746 | 43.08156 | 1054 ft | 24 kts | 123° |
| 2026-05-08 20:37 | 44.22657 | 43.08351 | 1056 ft | 24 kts | 122° |
| 2026-05-08 20:37 | 44.22569 | 43.08546 | 1058 ft | 24 kts | 122° |
| 2026-05-08 20:38 | 44.22480 | 43.08740 | 1060 ft | 24 kts | 122° |
| 2026-05-08 20:38 | 44.22392 | 43.08935 | 1057 ft | 24 kts | 122° |
| 2026-05-08 20:38 | 44.22304 | 43.09130 | 1057 ft | 24 kts | 122° |
| 2026-05-08 20:38 | 44.22216 | 43.09325 | 1059 ft | 24 kts | 122° |
| 2026-05-08 20:39 | 44.22128 | 43.09515 | 1060 ft | 24 kts | 122° |
| 2026-05-08 20:39 | 44.22040 | 43.09710 | 1062 ft | 24 kts | 122° |
| 2026-05-08 20:39 | 44.21953 | 43.09901 | 1060 ft | 22 kts | 122° |
| 2026-05-08 20:39 | 44.21875 | 43.10071 | 1057 ft | 21 kts | 122° |
| 2026-05-08 20:40 | 44.21805 | 43.10227 | 1057 ft | 16 kts | 122° |
| 2026-05-08 20:40 | 44.21760 | 43.10314 | 1056 ft | 10 kts | 143° |
| 2026-05-08 20:40 | 44.21693 | 43.10300 | 1055 ft | 11 kts | 212° |
| 2026-05-08 20:40 | 44.21642 | 43.10256 | 1055 ft | 9 kts | 212° |
| 2026-05-08 20:41 | 44.21594 | 43.10209 | 1056 ft | 8 kts | 224° |
| 2026-05-08 20:41 | 44.21570 | 43.10134 | 1056 ft | 9 kts | 256° |
| 2026-05-08 20:41 | 44.21558 | 43.10050 | 1055 ft | 9 kts | 260° |
| 2026-05-08 20:41 | 44.21547 | 43.09966 | 1055 ft | 9 kts | 258° |
| 2026-05-08 20:42 | 44.21515 | 43.09901 | 1055 ft | 8 kts | 219° |
| 2026-05-08 20:42 | 44.21466 | 43.09859 | 1055 ft | 8 kts | 191° |
| 2026-05-08 20:42 | 44.21426 | 43.09899 | 1055 ft | 8 kts | 126° |
| 2026-05-08 20:42 | 44.21389 | 43.09936 | 1055 ft | 7 kts | 177° |
| 2026-05-08 20:43 | 44.21366 | 43.09917 | 1055 ft | 3 kts | 233° |
| 2026-05-08 20:43 | 44.21366 | 43.09892 | 1055 ft | 3 kts | 281° |
| 2026-05-08 20:43 | 44.21372 | 43.09872 | 1055 ft | 2 kts | 296° |
| 2026-05-08 20:43 | 44.21374 | 43.09864 | 1055 ft | 0 kts | 293° |
| 2026-05-08 20:44 | 44.21375 | 43.09860 | 1055 ft | 1 kts | 284° |
| 2026-05-08 20:44 | 44.21377 | 43.09853 | 1055 ft | 0 kts | 300° |
| 2026-05-08 20:44 | 44.21379 | 43.09849 | 1055 ft | 0 kts | 301° |